Time;durP1;ratioP1;P1;durP2;ratioP2;P2;SDS_P1;SDS_P2;PMS_P1;PMS_P2;Temp;Humidity;BMP_temperature;BMP_pressure;BME280_temperature;BME280_humidity;BME280_pressure;Samples;Min_cycle;Max_cycle;Signal;HPM_P1;HPM_P2
2023/06/04 00:00:24;;;;;;;;;;;;;;;12.93;83.94;102108.97;5000875;28;20455;-73
2023/06/04 00:02:49;;;;;;;;;;;;;;;12.90;83.72;102104.66;5000299;28;19968;-72
2023/06/04 00:05:15;;;;;;;;;;;;;;;12.95;83.98;102099.84;4986910;28;19976;-73
2023/06/04 00:07:40;;;;;;;;;;;;;;;12.97;83.62;102105.13;5005642;28;19921;-74
2023/06/04 00:10:05;;;;;;;;;;;;;;;13.00;82.98;102105.75;5003284;28;19975;-72
2023/06/04 00:12:30;;;;;;;;;;;;;;;13.03;82.97;102102.00;4997379;28;19960;-73
2023/06/04 00:14:56;;;;;;;;;;;;;;;12.94;84.11;102105.31;5001306;28;19982;-73
2023/06/04 00:17:21;;;;;;;;;;;;;;;12.95;84.24;102093.56;5006233;28;19932;-73
2023/06/04 00:19:46;;;;;;;;;;;;;;;12.83;85.33;102100.66;5002352;28;19921;-72
2023/06/04 00:22:11;;;;;;;;;;;;;;;12.87;85.91;102105.72;5003121;28;19925;-74
2023/06/04 00:24:37;;;;;;;;;;;;;;;12.74;86.26;102099.44;5004124;28;19921;-72
2023/06/04 00:27:02;;;;;;;;;;;;;;;12.68;86.84;102097.16;5003609;28;20583;-72
2023/06/04 00:29:28;;;;;;;;;;;;;;;12.69;87.23;102107.84;4998703;28;20443;-73
2023/06/04 00:31:53;;;;;;;;;;;;;;;12.62;86.57;102095.75;5002268;28;19990;-73
2023/06/04 00:34:18;;;;;;;;;;;;;;;12.61;86.93;102102.09;5003167;28;20423;-72
2023/06/04 00:36:43;;;;;;;;;;;;;;;12.60;86.85;102100.38;5007866;28;19925;-73
2023/06/04 00:39:09;;;;;;;;;;;;;;;12.53;87.86;102102.63;5004345;28;19932;-72
2023/06/04 00:41:34;;;;;;;;;;;;;;;12.55;88.42;102100.69;5007525;28;20505;-72
2023/06/04 00:44:01;;;;;;;;;;;;;;;12.53;88.64;102102.63;5003868;28;20295;-72
2023/06/04 00:46:28;;;;;;;;;;;;;;;12.48;89.16;102101.16;5008123;28;21399;-72
2023/06/04 00:48:53;;;;;;;;;;;;;;;12.38;89.56;102099.09;5009520;28;19929;-72
2023/06/04 00:51:19;;;;;;;;;;;;;;;12.37;91.15;102097.38;5004066;28;19928;-73
2023/06/04 00:53:44;;;;;;;;;;;;;;;12.27;91.99;102098.91;5008036;28;19921;-72
2023/06/04 00:56:09;;;;;;;;;;;;;;;12.20;92.60;102094.88;5011315;28;19917;-73
2023/06/04 00:58:38;;;;;;;;;;;;;;;12.20;91.60;102100.28;5005814;28;19991;-76
2023/06/04 01:01:04;;;;;;;;;;;;;;;12.10;92.74;102098.19;5005884;28;19929;-73
2023/06/04 01:03:31;;;;;;;;;;;;;;;12.14;93.05;102097.03;5005703;28;19959;-74
2023/06/04 01:06:01;;;;;;;;;;;;;;;12.05;93.01;102094.06;5009541;28;19921;-72
2023/06/04 01:08:26;;;;;;;;;;;;;;;12.07;92.57;102100.19;5009196;28;19925;-73
2023/06/04 01:10:52;;;;;;;;;;;;;;;12.06;91.69;102102.03;5008955;28;19925;-74
2023/06/04 01:13:17;;;;;;;;;;;;;;;12.04;92.39;102103.97;5007832;28;20025;-74
2023/06/04 01:15:42;;;;;;;;;;;;;;;12.03;91.98;102096.84;5006201;28;19956;-72
2023/06/04 01:18:08;;;;;;;;;;;;;;;12.01;93.16;102096.09;5007550;28;20394;-72
2023/06/04 01:20:39;;;;;;;;;;;;;;;11.99;92.68;102098.88;5001297;28;20467;-73
2023/06/04 01:23:15;;;;;;;;;;;;;;;11.91;93.50;102090.41;4998282;28;19921;-72
2023/06/04 01:25:41;;;;;;;;;;;;;;;11.82;94.26;102097.22;5000971;28;20328;-73
2023/06/04 01:28:12;;;;;;;;;;;;;;;11.85;93.15;102096.16;4998689;28;19924;-72
2023/06/04 01:30:42;;;;;;;;;;;;;;;11.84;92.42;102098.00;4999195;28;20438;-73
2023/06/04 01:33:08;;;;;;;;;;;;;;;11.87;92.85;102093.38;4995706;28;19929;-74
2023/06/04 01:35:33;;;;;;;;;;;;;;;11.84;92.69;102100.69;5004397;28;20501;-73
2023/06/04 01:37:58;;;;;;;;;;;;;;;11.81;91.74;102098.19;5005476;28;19965;-73
2023/06/04 01:40:25;;;;;;;;;;;;;;;11.80;91.52;102096.47;4999282;28;20411;-73
2023/06/04 01:42:50;;;;;;;;;;;;;;;11.76;92.90;102097.59;4999114;28;19928;-73
2023/06/04 01:45:15;;;;;;;;;;;;;;;11.75;92.54;102093.19;5000358;28;19929;-73
2023/06/04 01:47:41;;;;;;;;;;;;;;;11.73;91.81;102089.72;5006027;28;20029;-74
2023/06/04 01:50:09;;;;;;;;;;;;;;;11.72;93.67;102097.91;5005480;28;19921;-72
2023/06/04 01:52:37;;;;;;;;;;;;;;;11.73;91.33;102089.72;5004220;28;19928;-73
2023/06/04 01:55:04;;;;;;;;;;;;;;;11.69;92.73;102098.94;5003956;28;19978;-72
2023/06/04 01:57:29;;;;;;;;;;;;;;;11.65;92.32;102092.06;5005315;28;20287;-72
2023/06/04 01:59:55;;;;;;;;;;;;;;;11.53;92.48;102091.84;5009424;28;19971;-71
2023/06/04 02:02:20;;;;;;;;;;;;;;;11.49;93.40;102098.38;4999061;28;20442;-72
2023/06/04 02:04:46;;;;;;;;;;;;;;;11.45;93.21;102099.50;5006224;28;19928;-71
2023/06/04 02:07:13;;;;;;;;;;;;;;;11.32;93.62;102072.50;5004708;28;19979;-73
2023/06/04 02:09:39;;;;;;;;;;;;;;;11.44;92.73;102095.09;5008213;28;20528;-72
2023/06/04 02:12:04;;;;;;;;;;;;;;;11.45;92.22;102095.97;5005792;28;19921;-72
2023/06/04 02:14:29;;;;;;;;;;;;;;;11.50;91.82;102099.25;5005940;28;19916;-72
2023/06/04 02:16:57;;;;;;;;;;;;;;;11.49;92.35;102093.00;5006458;28;19959;-72
2023/06/04 02:19:23;;;;;;;;;;;;;;;11.32;91.83;102077.88;5005667;28;19971;-72
2023/06/04 02:21:48;;;;;;;;;;;;;;;11.40;91.88;102090.84;4987806;28;20315;-72
2023/06/04 02:24:13;;;;;;;;;;;;;;;11.37;91.97;102099.13;4998890;28;19971;-72
2023/06/04 02:26:39;;;;;;;;;;;;;;;11.27;93.43;102095.28;4986912;28;19927;-72
2023/06/04 02:29:04;;;;;;;;;;;;;;;11.17;93.92;102097.66;5001340;28;19928;-72
2023/06/04 02:31:30;;;;;;;;;;;;;;;11.23;93.50;102099.97;4998610;28;19925;-72
2023/06/04 02:33:56;;;;;;;;;;;;;;;11.17;94.85;102105.72;4997660;28;19921;-72
2023/06/04 02:36:21;;;;;;;;;;;;;;;11.06;94.18;102092.94;4999546;28;19917;-72
2023/06/04 02:38:46;;;;;;;;;;;;;;;10.98;95.08;102096.06;4998634;28;19968;-72
2023/06/04 02:41:11;;;;;;;;;;;;;;;11.05;95.58;102100.09;4997135;28;20391;-72
2023/06/04 02:43:37;;;;;;;;;;;;;;;11.08;96.10;102102.63;5017009;28;20380;-72
2023/06/04 02:46:02;;;;;;;;;;;;;;;11.00;96.50;102096.81;4993664;28;20568;-72
2023/06/04 02:48:27;;;;;;;;;;;;;;;10.98;95.88;102100.56;4999093;28;19925;-72
2023/06/04 02:50:52;;;;;;;;;;;;;;;10.99;96.86;102103.16;5002947;28;19960;-72
2023/06/04 02:53:17;;;;;;;;;;;;;;;10.95;96.43;102101.63;5004697;28;20014;-72
2023/06/04 02:55:43;;;;;;;;;;;;;;;10.84;97.11;102098.69;4990174;28;19974;-72
2023/06/04 02:58:09;;;;;;;;;;;;;;;10.79;96.23;102098.97;5000033;28;19959;-72
2023/06/04 03:00:34;;;;;;;;;;;;;;;10.80;97.23;102100.72;4997467;28;19929;-72
2023/06/04 03:03:01;;;;;;;;;;;;;;;10.80;96.66;102100.72;5002077;28;20004;-72
2023/06/04 03:05:27;;;;;;;;;;;;;;;10.76;97.02;102105.38;5022928;28;20535;-72
2023/06/04 03:07:53;;;;;;;;;;;;;;;10.67;96.26;102105.94;5005414;28;19917;-72
2023/06/04 03:10:18;;;;;;;;;;;;;;;10.70;97.73;102097.72;5004071;28;20360;-72
2023/06/04 03:12:43;;;;;;;;;;;;;;;10.67;97.72;102097.88;4985252;28;19926;-72
2023/06/04 03:15:09;;;;;;;;;;;;;;;10.63;98.19;102099.84;5004931;28;19925;-72
2023/06/04 03:17:35;;;;;;;;;;;;;;;10.56;98.22;102101.19;4995645;28;20282;-71
2023/06/04 03:20:00;;;;;;;;;;;;;;;10.54;99.17;102096.84;4999248;28;19971;-71
2023/06/04 03:22:25;;;;;;;;;;;;;;;10.52;98.84;102104.13;4996551;28;20358;-72
2023/06/04 03:24:52;;;;;;;;;;;;;;;10.48;99.81;102100.75;4987269;28;19925;-72
2023/06/04 03:27:17;;;;;;;;;;;;;;;10.45;99.67;102095.56;4996226;28;19927;-72
2023/06/04 03:29:42;;;;;;;;;;;;;;;10.41;100.00;102104.75;4996032;28;20216;-72
2023/06/04 03:32:08;;;;;;;;;;;;;;;10.39;100.00;102098.59;5000660;28;19968;-72
2023/06/04 03:34:33;;;;;;;;;;;;;;;10.35;99.52;102100.56;5003427;28;20306;-72
2023/06/04 03:36:59;;;;;;;;;;;;;;;10.35;100.00;102101.41;4997898;28;19975;-71
2023/06/04 03:39:24;;;;;;;;;;;;;;;10.35;100.00;102100.56;5000066;28;20478;-72
2023/06/04 03:41:50;;;;;;;;;;;;;;;10.26;100.00;102093.00;4989433;28;19940;-71
2023/06/04 03:44:18;;;;;;;;;;;;;;;10.28;100.00;102102.72;5001227;28;19925;-72
2023/06/04 03:46:43;;;;;;;;;;;;;;;10.23;100.00;102101.25;5022054;28;19921;-72
2023/06/04 03:49:12;;;;;;;;;;;;;;;10.21;100.00;102104.88;5002908;28;20328;-71
2023/06/04 03:51:38;;;;;;;;;;;;;;;10.19;100.00;102112.16;5007871;28;19924;-71
2023/06/04 03:54:03;;;;;;;;;;;;;;;10.23;100.00;102103.91;5003317;28;20224;-71
2023/06/04 03:56:28;;;;;;;;;;;;;;;10.19;100.00;102104.13;4988127;28;20384;-72
2023/06/04 03:58:54;;;;;;;;;;;;;;;10.27;100.00;102109.06;5004300;28;20717;-72
2023/06/04 04:01:19;;;;;;;;;;;;;;;10.27;100.00;102102.81;5023161;28;19948;-71
2023/06/04 04:03:48;;;;;;;;;;;;;;;10.28;100.00;102108.09;5016630;28;19961;-72
2023/06/04 04:06:13;;;;;;;;;;;;;;;10.33;100.00;102100.63;5005606;28;20016;-72
2023/06/04 04:08:42;;;;;;;;;;;;;;;10.30;100.00;102098.16;5005076;28;19920;-71
2023/06/04 04:11:10;;;;;;;;;;;;;;;10.33;100.00;102103.31;5004777;28;19924;-72
2023/06/04 04:13:36;;;;;;;;;;;;;;;10.38;100.00;102110.25;4998580;28;20200;-72
2023/06/04 04:16:01;;;;;;;;;;;;;;;10.34;100.00;102110.41;5009513;28;19920;-72
2023/06/04 04:18:26;;;;;;;;;;;;;;;10.39;100.00;102107.53;5001272;28;20010;-72
2023/06/04 04:20:51;;;;;;;;;;;;;;;10.40;100.00;102111.06;5002666;28;19972;-71
2023/06/04 04:23:17;;;;;;;;;;;;;;;10.45;100.00;102117.03;5002090;28;19948;-72
2023/06/04 04:25:43;;;;;;;;;;;;;;;10.45;100.00;102109.88;5004304;28;20624;-71
2023/06/04 04:28:09;;;;;;;;;;;;;;;10.53;100.00;102113.91;4995506;28;21256;-72
2023/06/04 04:30:34;;;;;;;;;;;;;;;10.56;100.00;102117.31;5008739;28;20594;-72
2023/06/04 04:33:00;;;;;;;;;;;;;;;10.63;100.00;102112.44;5003360;28;19944;-72
2023/06/04 04:35:25;;;;;;;;;;;;;;;10.67;100.00;102116.69;4999974;28;20004;-72
2023/06/04 04:37:51;;;;;;;;;;;;;;;10.72;100.00;102111.91;5004505;28;20075;-72
2023/06/04 04:40:16;;;;;;;;;;;;;;;10.76;100.00;102117.97;4999219;28;19956;-72
2023/06/04 04:42:41;;;;;;;;;;;;;;;10.79;100.00;102118.63;5003368;28;20467;-72
2023/06/04 04:45:07;;;;;;;;;;;;;;;10.83;100.00;102119.34;5008676;28;19979;-72
2023/06/04 04:47:32;;;;;;;;;;;;;;;10.89;100.00;102121.66;5006306;28;19925;-72
2023/06/04 04:49:57;;;;;;;;;;;;;;;10.93;100.00;102117.81;5002496;28;19948;-72
2023/06/04 04:52:22;;;;;;;;;;;;;;;11.00;100.00;102118.31;5010329;28;20683;-72
2023/06/04 04:54:47;;;;;;;;;;;;;;;11.06;100.00;102120.66;5007918;28;20311;-72
2023/06/04 04:57:13;;;;;;;;;;;;;;;11.11;99.70;102125.78;5008250;28;19967;-74
2023/06/04 04:59:38;;;;;;;;;;;;;;;11.22;100.00;102119.75;5007357;28;20276;-72
2023/06/04 05:02:03;;;;;;;;;;;;;;;11.29;99.92;102121.09;5008085;28;20303;-72
2023/06/04 05:04:28;;;;;;;;;;;;;;;11.35;99.74;102119.88;5003896;28;20264;-72
2023/06/04 05:06:54;;;;;;;;;;;;;;;11.43;98.74;102124.78;4992949;28;20423;-72
2023/06/04 05:09:19;;;;;;;;;;;;;;;11.47;100.00;102113.72;5006228;28;19975;-74
2023/06/04 05:11:44;;;;;;;;;;;;;;;11.59;98.96;102116.63;5006919;28;19928;-72
2023/06/04 05:14:10;;;;;;;;;;;;;;;11.66;98.43;102118.84;5005889;28;19925;-72
2023/06/04 05:16:36;;;;;;;;;;;;;;;11.73;97.00;102115.78;5010674;28;19921;-73
2023/06/04 05:19:01;;;;;;;;;;;;;;;11.81;95.95;102124.22;5004607;28;19921;-72
2023/06/04 05:21:28;;;;;;;;;;;;;;;11.91;99.25;102124.53;5001514;28;19926;-72
2023/06/04 05:23:53;;;;;;;;;;;;;;;11.97;96.28;102119.63;5005284;28;20134;-72
2023/06/04 05:26:22;;;;;;;;;;;;;;;12.09;97.01;102118.00;5003963;28;20292;-72
2023/06/04 05:28:48;;;;;;;;;;;;;;;12.22;95.31;102114.50;5002216;28;19928;-72
2023/06/04 05:31:15;;;;;;;;;;;;;;;12.28;98.41;102111.41;5009750;28;19925;-72
2023/06/04 05:33:40;;;;;;;;;;;;;;;12.37;98.26;102110.84;5000980;28;19975;-72
2023/06/04 05:36:06;;;;;;;;;;;;;;;12.43;92.81;102114.94;4987751;28;19925;-72
2023/06/04 05:38:31;;;;;;;;;;;;;;;12.46;93.89;102117.44;4999253;28;19967;-72
2023/06/04 05:40:56;;;;;;;;;;;;;;;12.46;92.78;102114.75;4998229;28;20187;-72
2023/06/04 05:43:21;;;;;;;;;;;;;;;12.51;93.33;102117.13;5006181;28;19921;-71
2023/06/04 05:45:47;;;;;;;;;;;;;;;12.55;93.64;102124.94;4997538;28;20284;-72
2023/06/04 05:48:12;;;;;;;;;;;;;;;12.57;92.61;102123.00;5003177;28;19929;-72
2023/06/04 05:50:37;;;;;;;;;;;;;;;12.65;89.61;102118.91;5007708;28;19928;-71
2023/06/04 05:53:02;;;;;;;;;;;;;;;12.83;89.47;102123.09;4997417;28;20787;-72
2023/06/04 05:55:29;;;;;;;;;;;;;;;12.89;91.46;102128.06;4998443;28;20466;-72
2023/06/04 05:57:54;;;;;;;;;;;;;;;13.00;90.05;102132.72;5001748;28;20363;-73
2023/06/04 06:00:20;;;;;;;;;;;;;;;13.16;90.00;102129.00;5006389;28;19921;-73
2023/06/04 06:02:48;;;;;;;;;;;;;;;13.28;88.92;102129.97;5001467;28;19928;-72
2023/06/04 06:05:14;;;;;;;;;;;;;;;13.29;87.40;102135.25;4996043;28;19925;-72
2023/06/04 06:07:39;;;;;;;;;;;;;;;13.34;85.90;102127.72;5010224;28;20421;-72
2023/06/04 06:10:05;;;;;;;;;;;;;;;13.53;86.03;102131.00;5005073;28;21775;-72
2023/06/04 06:12:30;;;;;;;;;;;;;;;13.64;87.00;102134.69;5004296;28;20509;-71
2023/06/04 06:14:56;;;;;;;;;;;;;;;13.79;87.65;102132.72;5006518;28;19921;-72
2023/06/04 06:17:21;;;;;;;;;;;;;;;13.94;85.98;102129.91;5007959;28;19918;-72
2023/06/04 06:19:46;;;;;;;;;;;;;;;14.01;85.68;102136.59;5009414;28;19921;-74
2023/06/04 06:22:12;;;;;;;;;;;;;;;14.07;84.78;102136.16;5007151;28;20052;-73
2023/06/04 06:24:37;;;;;;;;;;;;;;;14.13;85.71;102128.59;5006404;28;19928;-72
2023/06/04 06:27:02;;;;;;;;;;;;;;;14.27;84.93;102130.28;5005244;28;19929;-72
2023/06/04 06:29:27;;;;;;;;;;;;;;;14.33;82.27;102140.63;5005824;28;19945;-72
2023/06/04 06:31:53;;;;;;;;;;;;;;;14.34;80.86;102137.81;4999811;28;20018;-71
2023/06/04 06:34:18;;;;;;;;;;;;;;;14.60;82.76;102137.72;5005631;28;19922;-72
2023/06/04 06:36:44;;;;;;;;;;;;;;;14.72;79.01;102138.69;5003366;28;19925;-72
2023/06/04 06:39:10;;;;;;;;;;;;;;;14.92;80.94;102133.59;5009974;28;19921;-72
2023/06/04 06:41:35;;;;;;;;;;;;;;;15.06;80.72;102132.56;5002833;28;19925;-72
2023/06/04 06:44:02;;;;;;;;;;;;;;;15.13;78.78;102140.06;5001799;28;20408;-72
2023/06/04 06:46:27;;;;;;;;;;;;;;;15.22;76.37;102145.78;4997601;28;19925;-73
2023/06/04 06:48:52;;;;;;;;;;;;;;;15.35;75.33;102145.69;5001897;28;19928;-72
2023/06/04 06:51:18;;;;;;;;;;;;;;;15.45;75.98;102144.00;5000538;28;19921;-73
2023/06/04 06:53:43;;;;;;;;;;;;;;;15.59;75.78;102145.63;5001639;28;20449;-73
2023/06/04 06:56:08;;;;;;;;;;;;;;;15.66;77.25;102143.28;4988728;28;19974;-72
2023/06/04 06:58:33;;;;;;;;;;;;;;;15.71;73.36;102149.22;5004457;28;19998;-72
2023/06/04 07:00:59;;;;;;;;;;;;;;;15.75;73.58;102146.13;5008053;28;19929;-72
2023/06/04 07:03:24;;;;;;;;;;;;;;;15.81;70.20;102152.03;5004266;28;19925;-71
2023/06/04 07:05:49;;;;;;;;;;;;;;;15.86;70.61;102150.72;5006777;28;19928;-71
2023/06/04 07:08:14;;;;;;;;;;;;;;;16.03;71.04;102156.63;4988675;28;20017;-72
2023/06/04 07:10:40;;;;;;;;;;;;;;;16.21;71.59;102158.84;4996011;28;19943;-73
2023/06/04 07:13:05;;;;;;;;;;;;;;;16.17;68.16;102155.50;5001172;28;20389;-71
2023/06/04 07:15:30;;;;;;;;;;;;;;;16.25;66.66;102161.16;5003480;28;20403;-71
2023/06/04 07:17:55;;;;;;;;;;;;;;;16.48;72.09;102153.00;5007423;28;19966;-72
2023/06/04 07:20:21;;;;;;;;;;;;;;;16.62;67.40;102162.72;5012767;28;19933;-71
2023/06/04 07:22:46;;;;;;;;;;;;;;;16.80;68.89;102160.31;5004171;28;19929;-72
2023/06/04 07:25:11;;;;;;;;;;;;;;;16.96;65.77;102159.94;5005597;28;20020;-71
2023/06/04 07:27:36;;;;;;;;;;;;;;;17.15;65.36;102161.94;5003121;28;19925;-71
2023/06/04 07:30:02;;;;;;;;;;;;;;;17.16;62.22;102163.66;5007850;28;20375;-71
2023/06/04 07:32:27;;;;;;;;;;;;;;;17.21;67.31;102164.16;5005086;28;20446;-73
2023/06/04 07:34:52;;;;;;;;;;;;;;;17.34;63.09;102166.66;5008811;28;20431;-71
2023/06/04 07:37:17;;;;;;;;;;;;;;;17.37;59.75;102165.53;5010606;28;20279;-71
2023/06/04 07:39:43;;;;;;;;;;;;;;;17.52;60.76;102163.34;5005312;28;20384;-71
2023/06/04 07:42:08;;;;;;;;;;;;;;;17.55;58.27;102165.81;5007632;28;20365;-71
2023/06/04 07:44:33;;;;;;;;;;;;;;;17.25;59.83;102162.03;5012316;28;20326;-72
2023/06/04 07:46:58;;;;;;;;;;;;;;;17.46;63.88;102166.59;5007145;28;20031;-71
2023/06/04 07:49:24;;;;;;;;;;;;;;;17.65;60.07;102163.97;5005801;28;19925;-71
2023/06/04 07:51:49;;;;;;;;;;;;;;;17.78;65.72;102166.47;5012768;28;19956;-71
2023/06/04 07:54:14;;;;;;;;;;;;;;;17.90;59.92;102161.81;5013322;28;20244;-74
2023/06/04 07:56:40;;;;;;;;;;;;;;;18.17;60.30;102168.56;5007407;28;20019;-71
2023/06/04 07:59:05;;;;;;;;;;;;;;;18.36;60.16;102166.91;4994537;28;19921;-74
2023/06/04 08:01:30;;;;;;;;;;;;;;;18.52;57.29;102163.66;5011986;28;20016;-71
2023/06/04 08:03:56;;;;;;;;;;;;;;;18.34;56.50;102169.75;5009414;28;20291;-73
2023/06/04 08:06:21;;;;;;;;;;;;;;;18.27;55.61;102153.16;5008336;28;20350;-71
2023/06/04 08:08:48;;;;;;;;;;;;;;;18.64;60.30;102167.13;5005720;28;20415;-70
2023/06/04 08:11:13;;;;;;;;;;;;;;;18.93;57.81;102160.84;5008056;28;19921;-71
2023/06/04 08:13:39;;;;;;;;;;;;;;;18.96;55.52;102156.00;5003241;28;19929;-71
2023/06/04 08:16:04;;;;;;;;;;;;;;;19.15;56.37;102163.31;5004082;28;19929;-73
2023/06/04 08:18:29;;;;;;;;;;;;;;;19.28;54.31;102157.56;5007844;28;19952;-71
2023/06/04 08:20:55;;;;;;;;;;;;;;;19.39;58.71;102156.56;5000415;28;19929;-72
2023/06/04 08:23:20;;;;;;;;;;;;;;;19.54;56.32;102158.81;5001112;28;19925;-71
2023/06/04 08:25:45;;;;;;;;;;;;;;;19.60;55.78;102161.78;5001987;28;19979;-71
2023/06/04 08:28:10;;;;;;;;;;;;;;;19.54;57.72;102159.69;4998720;28;20278;-71
2023/06/04 08:30:36;;;;;;;;;;;;;;;19.72;57.85;102161.63;5005145;28;20327;-71
2023/06/04 08:33:02;;;;;;;;;;;;;;;19.85;54.51;102164.91;5002585;28;19961;-72
2023/06/04 08:35:27;;;;;;;;;;;;;;;20.00;53.78;102167.16;5006261;28;19921;-77
2023/06/04 08:37:52;;;;;;;;;;;;;;;19.95;49.88;102172.22;5007906;28;19926;-71
2023/06/04 08:40:18;;;;;;;;;;;;;;;19.93;51.46;102169.63;5015241;28;19972;-75
2023/06/04 08:42:44;;;;;;;;;;;;;;;20.03;51.22;102169.59;5004126;28;20063;-79
2023/06/04 08:45:11;;;;;;;;;;;;;;;20.09;49.56;102169.00;5006158;28;19920;-70
2023/06/04 08:47:36;;;;;;;;;;;;;;;20.26;53.05;102171.94;5005664;28;19925;-72
2023/06/04 08:50:02;;;;;;;;;;;;;;;20.25;45.63;102170.22;4995749;28;19968;-73
2023/06/04 08:52:27;;;;;;;;;;;;;;;20.21;53.79;102167.78;5003656;28;20288;-71
2023/06/04 08:54:53;;;;;;;;;;;;;;;20.41;49.41;102166.81;5000753;28;19949;-71
2023/06/04 08:57:18;;;;;;;;;;;;;;;20.43;48.38;102178.44;4999376;28;19925;-74
2023/06/04 08:59:44;;;;;;;;;;;;;;;20.57;48.43;102180.66;5000797;28;21541;-75
2023/06/04 09:02:10;;;;;;;;;;;;;;;20.64;48.42;102180.91;5000019;28;19925;-74
2023/06/04 09:04:35;;;;;;;;;;;;;;;20.60;54.14;102183.06;5000383;28;19972;-74
2023/06/04 09:07:03;;;;;;;;;;;;;;;20.76;47.65;102170.63;5001142;28;20010;-71
2023/06/04 09:09:29;;;;;;;;;;;;;;;20.92;48.14;102175.44;5005833;28;19921;-72
2023/06/04 09:11:55;;;;;;;;;;;;;;;21.02;46.70;102173.47;5002279;28;19925;-74
2023/06/04 09:14:21;;;;;;;;;;;;;;;21.00;45.66;102174.66;4997103;28;19936;-71
2023/06/04 09:16:47;;;;;;;;;;;;;;;21.06;44.13;102180.34;4998819;28;19921;-73
2023/06/04 09:19:12;;;;;;;;;;;;;;;21.06;43.16;102179.47;5001238;28;20391;-72
2023/06/04 09:21:46;;;;;;;;;;;;;;;21.20;42.95;102178.03;5006180;28;20459;-73
2023/06/04 09:24:12;;;;;;;;;;;;;;;21.16;42.30;102172.06;5005945;28;19921;-72
2023/06/04 09:26:37;;;;;;;;;;;;;;;21.09;40.71;102171.84;5005442;28;20020;-71
2023/06/04 09:29:02;;;;;;;;;;;;;;;21.26;43.64;102171.97;5006086;28;19928;-74
2023/06/04 09:31:30;;;;;;;;;;;;;;;21.51;41.40;102169.41;5003493;28;19920;-73
2023/06/04 09:33:55;;;;;;;;;;;;;;;21.64;41.31;102174.50;5003247;28;20418;-72
2023/06/04 09:36:21;;;;;;;;;;;;;;;21.71;39.46;102179.19;5007465;28;20323;-71
2023/06/04 09:38:47;;;;;;;;;;;;;;;21.75;36.32;102163.31;4998646;28;19928;-70
2023/06/04 09:41:12;;;;;;;;;;;;;;;21.97;39.14;102185.63;5003115;28;19980;-71
2023/06/04 09:43:37;;;;;;;;;;;;;;;21.97;37.98;102174.69;5000491;28;20328;-70
2023/06/04 09:46:12;;;;;;;;;;;;;;;22.04;38.12;102167.56;5007894;28;20191;-71
2023/06/04 09:48:38;;;;;;;;;;;;;;;22.21;38.48;102184.03;4999692;28;19925;-74
2023/06/04 09:51:09;;;;;;;;;;;;;;;22.27;35.85;102176.00;5009100;28;19921;-72
2023/06/04 09:53:34;;;;;;;;;;;;;;;22.11;35.06;102140.41;5004969;28;20690;-74
2023/06/04 09:56:01;;;;;;;;;;;;;;;22.38;34.63;102174.84;5003983;28;20434;-72
2023/06/04 09:58:26;;;;;;;;;;;;;;;22.73;36.34;102162.00;5004700;28;20382;-73
2023/06/04 10:00:52;;;;;;;;;;;;;;;22.75;39.47;102175.53;4989005;28;19928;-73
2023/06/04 10:03:23;;;;;;;;;;;;;;;22.50;38.23;102177.34;5000783;28;19925;-73
2023/06/04 10:05:48;;;;;;;;;;;;;;;22.66;37.23;102179.25;5003263;28;19954;-73
2023/06/04 10:08:13;;;;;;;;;;;;;;;22.54;38.14;102173.25;5006177;28;19921;-73
2023/06/04 10:10:38;;;;;;;;;;;;;;;22.87;35.52;102167.84;4999694;28;19964;-69
2023/06/04 10:13:05;;;;;;;;;;;;;;;23.12;32.52;102176.91;5001817;28;20449;-70
2023/06/04 10:15:33;;;;;;;;;;;;;;;23.29;34.08;102175.06;5002329;28;19917;-71
2023/06/04 10:17:58;;;;;;;;;;;;;;;22.92;33.44;102166.31;5001416;28;19917;-71
2023/06/04 10:20:23;;;;;;;;;;;;;;;23.44;33.73;102169.75;5004716;28;20205;-71
2023/06/04 10:22:49;;;;;;;;;;;;;;;23.30;34.09;102168.56;5006470;28;19971;-71
2023/06/04 10:25:14;;;;;;;;;;;;;;;23.06;32.33;102172.13;5012626;28;19964;-70
2023/06/04 10:27:39;;;;;;;;;;;;;;;23.32;34.09;102172.00;5019437;28;19925;-71
2023/06/04 10:30:05;;;;;;;;;;;;;;;23.57;33.39;102171.97;5006711;28;19990;-70
2023/06/04 10:32:30;;;;;;;;;;;;;;;23.79;32.52;102164.91;5002594;28;21129;-72
2023/06/04 10:34:57;;;;;;;;;;;;;;;23.39;32.77;102165.84;5003169;28;19932;-71
2023/06/04 10:37:23;;;;;;;;;;;;;;;23.83;35.03;102172.78;5003984;28;19925;-72
2023/06/04 10:39:54;;;;;;;;;;;;;;;23.92;33.55;102177.19;5024789;28;20504;-70
2023/06/04 10:42:21;;;;;;;;;;;;;;;24.37;32.40;102172.91;4998393;28;20019;-70
2023/06/04 10:44:47;;;;;;;;;;;;;;;24.43;36.86;102143.94;5004740;28;20412;-69
2023/06/04 10:47:19;;;;;;;;;;;;;;;24.91;34.20;102164.91;5007659;28;20262;-71
2023/06/04 10:49:45;;;;;;;;;;;;;;;24.97;34.03;102169.69;5004676;28;20229;-71
2023/06/04 10:52:10;;;;;;;;;;;;;;;24.97;32.65;102165.03;5004124;28;20368;-70
2023/06/04 10:54:36;;;;;;;;;;;;;;;24.21;34.45;102167.53;5003790;28;20675;-69
2023/06/04 10:57:09;;;;;;;;;;;;;;;25.02;33.86;102164.50;5002665;28;19949;-69
2023/06/04 10:59:35;;;;;;;;;;;;;;;25.83;31.56;102165.78;5005426;28;19928;-74
2023/06/04 11:02:09;;;;;;;;;;;;;;;25.25;32.14;102166.38;5003263;28;19931;-71
2023/06/04 11:04:36;;;;;;;;;;;;;;;25.75;32.66;102173.13;5005282;28;20297;-72
2023/06/04 11:07:03;;;;;;;;;;;;;;;26.17;31.37;102173.53;5002860;28;20379;-71
2023/06/04 11:09:28;;;;;;;;;;;;;;;26.75;32.96;102164.44;5004138;28;20603;-71
2023/06/04 11:11:57;;;;;;;;;;;;;;;27.26;31.91;102157.13;5000506;28;19931;-70
2023/06/04 11:14:22;;;;;;;;;;;;;;;27.16;33.11;102149.16;5006017;28;20341;-71
2023/06/04 11:16:48;;;;;;;;;;;;;;;27.17;30.97;102155.53;5004820;28;20291;-71
2023/06/04 11:19:13;;;;;;;;;;;;;;;27.73;33.18;102159.38;5008505;28;20268;-71
2023/06/04 11:21:38;;;;;;;;;;;;;;;27.23;31.53;102157.50;5003653;28;20299;-70
2023/06/04 11:24:04;;;;;;;;;;;;;;;27.63;30.29;102152.31;5006576;28;20397;-71
2023/06/04 11:26:36;;;;;;;;;;;;;;;27.97;33.93;102156.13;5008231;28;19921;-72
2023/06/04 11:29:01;;;;;;;;;;;;;;;27.86;30.12;102147.56;5003534;28;20020;-71
2023/06/04 11:31:26;;;;;;;;;;;;;;;27.97;28.60;102161.66;5001095;28;20294;-71
2023/06/04 11:33:51;;;;;;;;;;;;;;;28.41;30.29;102147.63;5005423;28;19924;-72
2023/06/04 11:36:25;;;;;;;;;;;;;;;28.41;30.40;102147.63;5002985;28;19961;-71
2023/06/04 11:38:54;;;;;;;;;;;;;;;28.96;28.85;102146.69;5003390;28;19921;-71
2023/06/04 11:41:19;;;;;;;;;;;;;;;29.59;27.67;102140.72;4997735;28;20330;-71
2023/06/04 11:43:47;;;;;;;;;;;;;;;30.04;27.42;102144.69;4996550;28;19925;-70
2023/06/04 11:46:12;;;;;;;;;;;;;;;29.78;27.77;102125.16;5001565;28;20320;-71
2023/06/04 11:48:37;;;;;;;;;;;;;;;30.08;29.33;102126.53;4999818;28;19925;-73
2023/06/04 11:51:11;;;;;;;;;;;;;;;30.17;28.56;102132.72;5000941;28;19921;-70
2023/06/04 11:53:37;;;;;;;;;;;;;;;28.93;25.57;102136.94;4999170;28;19967;-72
2023/06/04 11:56:02;;;;;;;;;;;;;;;28.82;27.06;102130.13;5001351;28;19929;-73
2023/06/04 11:58:27;;;;;;;;;;;;;;;28.13;26.80;102126.50;4986763;28;19943;-71
2023/06/04 12:00:53;;;;;;;;;;;;;;;28.93;27.75;102131.41;4999317;28;20380;-71
2023/06/04 12:03:18;;;;;;;;;;;;;;;28.41;27.34;102109.81;5014786;28;20012;-73
2023/06/04 12:05:43;;;;;;;;;;;;;;;28.54;28.40;102113.66;5004341;28;19991;-72
2023/06/04 12:08:09;;;;;;;;;;;;;;;28.86;27.05;102116.72;5002913;28;19960;-71
2023/06/04 12:10:41;;;;;;;;;;;;;;;29.69;29.18;102101.53;5002141;28;20391;-71
2023/06/04 12:13:06;;;;;;;;;;;;;;;30.04;28.21;102109.53;5000346;28;19960;-71
2023/06/04 12:15:31;;;;;;;;;;;;;;;29.87;28.61;102125.75;5007661;28;20060;-71
2023/06/04 12:17:57;;;;;;;;;;;;;;;30.03;25.62;102129.97;4999555;28;19925;-71
2023/06/04 12:20:32;;;;;;;;;;;;;;;30.20;26.12;102122.03;5006321;28;19967;-71
2023/06/04 12:22:57;;;;;;;;;;;;;;;30.75;25.84;102123.44;5002575;28;20417;-73
2023/06/04 12:25:26;;;;;;;;;;;;;;;30.61;23.73;102135.66;5001652;28;19945;-71
2023/06/04 12:27:52;;;;;;;;;;;;;;;30.79;23.35;102141.31;5005962;28;19921;-73